Time;durP1;ratioP1;P1;durP2;ratioP2;P2;SDS_P1;SDS_P2;PMS_P1;PMS_P2;Temp;Humidity;BMP_temperature;BMP_pressure;BME280_temperature;BME280_humidity;BME280_pressure;Samples;Min_cycle;Max_cycle;Signal;HPM_P1;HPM_P2
2023/06/14 00:01:25;;;;;;;4.03;2.58;;;15.80;51.40;;;14.88;52.78;95501.28;4955769;28;20129;-65
2023/06/14 00:03:50;;;;;;;4.85;3.08;;;15.70;51.50;;;14.84;52.52;95493.00;4989709;28;20062;-64
2023/06/14 00:06:17;;;;;;;7.53;3.25;;;15.70;50.70;;;14.85;52.40;95491.16;4971766;28;20062;-64
2023/06/14 00:08:42;;;;;;;5.05;3.30;;;15.70;50.80;;;14.82;52.81;95491.63;4993684;28;20022;-64
2023/06/14 00:11:08;;;;;;;10.60;3.35;;;15.70;51.60;;;14.83;53.17;95495.88;4954989;28;20100;-65
2023/06/14 00:13:34;;;;;;;5.00;2.97;;;15.70;51.20;;;14.80;53.29;95493.69;4957596;28;20039;-65
2023/06/14 00:16:00;;;;;;;4.35;2.92;;;15.60;51.30;;;14.78;52.69;95495.78;4973681;28;20038;-65
2023/06/14 00:18:29;;;;;;;3.90;2.75;;;15.60;52.00;;;14.74;53.58;95495.44;4990303;28;20027;-64
2023/06/14 00:20:55;;;;;;;10.00;2.92;;;15.60;51.90;;;14.70;53.54;95495.06;4990147;28;20030;-64
2023/06/14 00:23:21;;;;;;;5.20;2.75;;;15.50;52.20;;;14.67;54.63;95500.00;4990154;28;20302;-64
2023/06/14 00:25:47;;;;;;;5.97;2.92;;;15.60;52.30;;;14.64;54.62;95495.19;4989432;28;20134;-65
2023/06/14 00:28:12;;;;;;;4.57;3.03;;;15.50;52.40;;;14.58;54.79;95485.50;4990232;28;20126;-64
2023/06/14 00:30:38;;;;;;;5.47;2.97;;;15.40;52.50;;;14.57;54.40;95489.19;4989910;28;20569;-64
2023/06/14 00:33:04;;;;;;;4.47;2.97;;;15.40;52.60;;;14.54;54.16;95495.75;4991178;28;20037;-64
2023/06/14 00:35:30;;;;;;;6.97;3.35;;;15.30;53.10;;;14.50;53.57;95494.59;4989954;28;20073;-65
2023/06/14 00:37:55;;;;;;;7.60;3.13;;;15.30;52.00;;;14.44;55.43;95490.19;4955564;28;20065;-64
2023/06/14 00:40:21;;;;;;;4.55;2.95;;;15.30;52.40;;;14.36;55.16;95490.50;4989865;28;20426;-64
2023/06/14 00:42:47;;;;;;;4.00;3.22;;;15.20;52.70;;;14.33;53.87;95490.97;4956048;28;20086;-64
2023/06/14 00:45:13;;;;;;;6.22;3.30;;;15.10;52.50;;;14.27;55.09;95494.53;4970450;28;20521;-65
2023/06/14 00:47:40;;;;;;;4.88;3.40;;;15.10;52.70;;;14.23;54.41;95493.34;4988581;28;20537;-64
2023/06/14 00:50:07;;;;;;;3.88;2.95;;;15.10;52.90;;;14.20;55.26;95497.25;4973200;28;20054;-64
2023/06/14 00:52:34;;;;;;;5.57;3.55;;;15.10;53.00;;;14.17;56.11;95492.41;4971626;28;20041;-65
2023/06/14 00:55:00;;;;;;;5.50;3.03;;;15.10;53.00;;;14.15;55.11;95491.03;4988211;28;20121;-65
2023/06/14 00:57:26;;;;;;;4.85;3.13;;;15.00;52.90;;;14.13;55.86;95496.53;4954432;28;20122;-64
2023/06/14 00:59:52;;;;;;;4.45;3.00;;;15.00;53.20;;;14.09;54.95;95493.56;4988270;23;20022;-67
2023/06/14 01:02:18;;;;;;;4.40;2.90;;;15.00;53.00;;;14.09;55.89;95487.44;5001790;28;20065;-67
2023/06/14 01:04:47;;;;;;;6.22;3.22;;;15.00;52.80;;;14.08;56.20;95493.78;4987346;28;20038;-67
2023/06/14 01:07:33;;;;;;;4.30;3.25;;;15.00;52.60;;;14.07;55.91;95492.97;4985022;28;20104;-67
2023/06/14 01:10:32;;;;;;;6.25;3.20;;;15.00;52.80;;;14.07;57.01;95492.16;4986285;28;20034;-67
2023/06/14 01:13:19;;;;;;;5.13;3.45;;;15.00;53.10;;;14.06;56.55;95499.28;5005182;28;20049;-67
2023/06/14 01:15:45;;;;;;;5.28;3.00;;;15.00;53.60;;;14.02;55.88;95486.72;4990117;28;20049;-67
2023/06/14 01:18:17;;;;;;;6.75;2.90;;;14.90;53.60;;;14.00;55.80;95483.50;4937597;28;20035;-67
2023/06/14 01:20:45;;;;;;;4.88;3.10;;;14.90;54.10;;;13.97;56.64;95479.47;4973379;28;20088;-67
2023/06/14 01:23:15;;;;;;;4.28;3.15;;;14.80;54.00;;;13.94;57.07;95490.50;4989248;28;20023;-67
2023/06/14 01:25:44;;;;;;;5.07;3.10;;;14.90;54.30;;;13.90;56.55;95478.75;4939085;28;20035;-67
2023/06/14 01:28:11;;;;;;;3.88;2.63;;;14.80;54.20;;;13.87;57.14;95483.69;4989006;28;20034;-67
2023/06/14 01:30:37;;;;;;;4.10;2.95;;;14.80;54.20;;;13.85;56.67;95488.41;4988617;28;20023;-67
2023/06/14 01:33:03;;;;;;;6.25;3.35;;;14.80;54.30;;;13.82;58.11;95486.22;4972102;28;20062;-67
2023/06/14 01:35:29;;;;;;;4.70;3.00;;;14.70;54.30;;;13.79;57.06;95482.16;4953379;28;20043;-68
2023/06/14 01:37:55;;;;;;;5.90;3.05;;;14.70;53.60;;;13.74;56.38;95482.03;4956269;28;20038;-66
2023/06/14 01:40:20;;;;;;;4.53;2.97;;;14.60;54.00;;;13.69;56.68;95474.78;4953775;28;20051;-68
2023/06/14 01:42:50;;;;;;;4.57;2.97;;;14.60;54.40;;;13.64;58.22;95482.56;4971980;28;20050;-67
2023/06/14 01:45:15;;;;;;;11.30;3.55;;;14.50;54.70;;;13.57;57.23;95478.38;4987528;28;20029;-68
2023/06/14 01:47:41;;;;;;;6.85;3.30;;;14.40;55.00;;;13.52;57.95;95475.59;4987352;28;20039;-67
2023/06/14 01:50:07;;;;;;;7.03;3.20;;;14.40;55.20;;;13.46;58.39;95475.47;4939909;28;20180;-68
2023/06/14 01:52:33;;;;;;;6.18;2.92;;;14.30;55.90;;;13.41;59.30;95471.88;4957769;28;20035;-67
2023/06/14 01:55:01;;;;;;;5.97;3.17;;;14.30;56.10;;;13.38;59.25;95478.41;4956246;28;20780;-67
2023/06/14 01:57:27;;;;;;;5.35;3.58;;;14.20;56.40;;;13.33;59.47;95467.69;4974209;28;20498;-67
2023/06/14 01:59:53;;;;;;;4.43;3.47;;;14.20;56.50;;;13.30;59.28;95478.69;5003907;28;20050;-68
2023/06/14 02:02:19;;;;;;;4.15;2.90;;;14.20;57.00;;;13.27;60.10;95476.50;4988985;28;20034;-68
2023/06/14 02:04:47;;;;;;;5.38;3.45;;;14.10;57.20;;;13.23;60.67;95477.97;4974685;28;20085;-67
2023/06/14 02:07:13;;;;;;;5.43;3.58;;;14.10;57.30;;;13.20;60.20;95481.06;4973053;28;20498;-67
2023/06/14 02:09:39;;;;;;;5.97;3.50;;;14.10;57.40;;;13.18;60.66;95472.56;4987050;28;20122;-67
2023/06/14 02:12:05;;;;;;;5.85;3.47;;;14.10;57.10;;;13.16;59.85;95482.50;4989683;28;20035;-67
2023/06/14 02:14:31;;;;;;;4.57;3.05;;;14.10;57.20;;;13.12;60.74;95484.75;4972651;28;20057;-67
2023/06/14 02:16:56;;;;;;;4.32;3.25;;;14.10;57.00;;;13.06;60.59;95484.81;4956499;28;20030;-67
2023/06/14 02:19:22;;;;;;;3.72;3.15;;;13.90;57.40;;;13.04;60.51;95477.13;4989020;28;20038;-67
2023/06/14 02:21:48;;;;;;;5.00;3.47;;;14.00;57.60;;;13.01;61.28;95482.84;4971676;28;20039;-67
2023/06/14 02:24:14;;;;;;;4.50;3.40;;;13.90;57.70;;;12.98;61.22;95485.13;4969865;28;20067;-68
2023/06/14 02:26:43;;;;;;;6.10;3.25;;;13.80;57.80;;;12.94;61.23;95487.41;4988700;28;20397;-67
2023/06/14 02:29:09;;;;;;;4.72;3.30;;;13.80;57.90;;;12.92;61.10;95483.38;4956322;28;20398;-67
2023/06/14 02:31:35;;;;;;;13.32;11.20;;;13.80;57.90;;;12.91;61.14;95479.91;4971681;28;20630;-68
2023/06/14 02:34:01;;;;;;;18.65;14.02;;;13.80;57.90;;;12.88;61.51;95481.13;4957724;28;20469;-67
2023/06/14 02:36:29;;;;;;;20.73;15.57;;;13.80;58.40;;;12.83;62.37;95482.81;4971379;28;20031;-68
2023/06/14 02:38:57;;;;;;;13.77;11.57;;;13.70;59.10;;;12.80;62.31;95489.34;4973585;28;20402;-67
2023/06/14 02:41:24;;;;;;;14.45;9.82;;;13.70;58.70;;;12.77;62.66;95486.34;4956324;28;20499;-65
2023/06/14 02:43:49;;;;;;;5.13;4.10;;;13.60;59.10;;;12.72;63.32;95494.91;4983309;28;20462;-65
2023/06/14 02:46:15;;;;;;;6.80;3.55;;;13.60;58.90;;;12.69;62.89;95495.34;4982949;28;20031;-70
2023/06/14 02:48:41;;;;;;;7.90;5.85;;;13.60;59.10;;;12.65;63.61;95494.16;4990235;28;20052;-67
2023/06/14 02:51:08;;;;;;;18.20;13.57;;;13.60;59.30;;;12.63;62.71;95488.28;4957910;28;20093;-67
2023/06/14 02:53:34;;;;;;;25.30;21.77;;;13.60;59.50;;;12.56;63.71;95487.53;4959250;28;20046;-68
2023/06/14 02:56:00;;;;;;;9.00;6.63;;;13.60;59.70;;;12.55;63.53;95488.56;4974174;28;20117;-68
2023/06/14 02:58:26;;;;;;;8.65;4.18;;;13.50;59.80;;;12.50;64.13;95489.22;4991893;28;20053;-67
2023/06/14 03:00:55;;;;;;;5.90;3.50;;;13.50;59.90;;;12.50;64.04;95496.31;4990934;28;20502;-67
2023/06/14 03:03:21;;;;;;;5.28;4.00;;;13.50;59.70;;;12.44;63.84;95502.44;4991693;28;20088;-67
2023/06/14 03:05:49;;;;;;;6.70;3.83;;;13.40;60.00;;;12.37;64.68;95497.22;4974865;28;20560;-67
2023/06/14 03:08:19;;;;;;;4.97;3.60;;;13.30;60.30;;;12.33;65.54;95501.31;4975254;28;20057;-67
2023/06/14 03:10:48;;;;;;;29.48;20.73;;;13.30;60.30;;;12.31;65.83;95502.56;4957472;28;20031;-67
2023/06/14 03:13:15;;;;;;;30.52;23.70;;;13.30;60.60;;;12.27;64.86;95500.34;4983180;28;20081;-67
2023/06/14 03:15:44;;;;;;;20.27;14.70;;;13.30;60.70;;;12.23;65.70;95499.16;4959478;28;20031;-67
2023/06/14 03:18:11;;;;;;;26.77;16.83;;;13.20;60.90;;;12.19;65.13;95503.22;4974947;28;20042;-67
2023/06/14 03:20:38;;;;;;;19.73;13.95;;;13.30;60.70;;;12.18;65.17;95506.88;4977563;28;20130;-67
2023/06/14 03:23:05;;;;;;;8.35;5.57;;;13.20;60.80;;;12.17;65.46;95512.38;4961322;28;20069;-68
2023/06/14 03:25:31;;;;;;;6.40;4.68;;;13.20;60.50;;;12.16;65.79;95514.19;4989817;28;20126;-66
2023/06/14 03:27:57;;;;;;;8.63;5.28;;;13.30;60.60;;;12.16;66.11;95508.91;4958217;28;20200;-69
2023/06/14 03:30:23;;;;;;;11.38;9.32;;;13.30;60.80;;;12.19;65.72;95516.41;4990737;28;20030;-66
2023/06/14 03:32:48;;;;;;;16.05;13.48;;;13.30;61.00;;;12.20;66.51;95520.66;4989108;28;20040;-69
2023/06/14 03:35:17;;;;;;;14.13;10.90;;;13.30;61.60;;;12.19;66.84;95519.03;4975494;28;20105;-69
2023/06/14 03:37:46;;;;;;;11.23;5.97;;;13.30;61.70;;;12.19;68.21;95521.69;4977492;28;20514;-69
2023/06/14 03:40:14;;;;;;;6.50;4.68;;;13.40;61.50;;;12.17;67.41;95521.09;4957572;28;20487;-69
2023/06/14 03:42:40;;;;;;;6.90;4.57;;;13.40;61.50;;;12.19;67.39;95523.50;4940289;28;20027;-69
2023/06/14 03:45:07;;;;;;;10.52;4.35;;;13.40;61.60;;;12.20;68.03;95528.56;4990509;28;20104;-66
2023/06/14 03:47:32;;;;;;;8.77;4.35;;;13.40;61.80;;;12.19;67.58;95526.13;4990905;28;20042;-66
2023/06/14 03:49:58;;;;;;;9.35;4.13;;;13.40;61.70;;;12.16;67.62;95530.00;4957459;28;20109;-69
2023/06/14 03:52:24;;;;;;;6.25;3.95;;;13.30;61.80;;;12.14;68.31;95531.25;4955169;28;20030;-69
2023/06/14 03:54:51;;;;;;;10.23;7.40;;;13.20;62.20;;;12.13;68.25;95527.00;4971347;28;20462;-68
2023/06/14 03:57:16;;;;;;;25.38;19.13;;;13.30;62.10;;;12.14;68.14;95532.06;4989597;28;20053;-68
2023/06/14 03:59:42;;;;;;;27.75;22.50;;;13.30;62.00;;;12.14;68.35;95537.34;4976264;28;20522;-67
2023/06/14 04:02:09;;;;;;;23.75;16.15;;;13.40;62.10;;;12.17;68.69;95539.53;4975312;28;20517;-68
2023/06/14 04:04:35;;;;;;;10.55;6.65;;;13.40;62.40;;;12.19;68.83;95541.97;4960895;28;20455;-67
2023/06/14 04:07:03;;;;;;;6.60;4.70;;;13.50;62.40;;;12.21;68.97;95543.38;4965808;28;20035;-67
2023/06/14 04:09:31;;;;;;;7.82;4.38;;;13.50;62.30;;;12.24;69.78;95550.88;4974151;28;20064;-67
2023/06/14 04:11:57;;;;;;;5.82;3.95;;;13.50;62.40;;;12.27;69.28;95547.00;4974618;28;20043;-67
2023/06/14 04:14:23;;;;;;;7.80;4.70;;;13.60;62.60;;;12.27;69.45;95545.16;4977166;28;20089;-67
2023/06/14 04:16:49;;;;;;;5.28;4.03;;;13.60;62.60;;;12.30;69.41;95545.75;4977066;28;20038;-67
2023/06/14 04:19:15;;;;;;;6.82;4.53;;;13.60;62.50;;;12.34;69.78;95552.22;4988020;28;20033;-67
2023/06/14 04:21:41;;;;;;;6.13;3.70;;;13.60;62.00;;;12.40;68.64;95548.72;4955552;28;20174;-68
2023/06/14 04:24:12;;;;;;;6.18;3.97;;;13.70;61.40;;;12.46;68.98;95558.44;4974584;28;20034;-68
2023/06/14 04:26:39;;;;;;;8.20;3.72;;;13.70;61.50;;;12.51;68.98;95553.34;4990566;28;20039;-67
2023/06/14 04:29:05;;;;;;;7.00;3.42;;;13.90;61.60;;;12.55;69.36;95554.50;4974313;28;20023;-67
2023/06/14 04:31:33;;;;;;;7.05;3.92;;;13.90;61.40;;;12.60;69.21;95562.59;4954863;28;20462;-67
2023/06/14 04:33:59;;;;;;;5.72;4.15;;;14.00;61.50;;;12.66;69.85;95561.72;4985413;28;20030;-67
2023/06/14 04:36:27;;;;;;;5.97;4.00;;;14.00;61.90;;;12.72;69.70;95560.88;4974285;28;20031;-67
2023/06/14 04:38:54;;;;;;;8.75;4.32;;;14.10;61.40;;;12.77;69.74;95568.97;4986180;28;20469;-68
2023/06/14 04:41:22;;;;;;;8.63;4.47;;;14.10;61.50;;;12.81;70.16;95567.50;4973772;28;20054;-67
2023/06/14 04:43:49;;;;;;;12.98;5.00;;;14.20;61.50;;;12.87;69.62;95573.72;4955905;28;20051;-67
2023/06/14 04:46:15;;;;;;;10.43;4.63;;;14.20;61.70;;;12.91;69.76;95569.66;4989780;28;20026;-68
2023/06/14 04:48:42;;;;;;;10.18;4.72;;;14.20;61.30;;;12.97;70.29;95578.53;4955100;28;20035;-68
2023/06/14 04:51:08;;;;;;;8.50;4.57;;;14.30;61.60;;;13.01;70.37;95580.53;4979171;28;20080;-69
2023/06/14 04:53:34;;;;;;;10.45;4.63;;;14.40;61.60;;;13.04;70.55;95584.56;4938507;28;20035;-68
2023/06/14 04:56:00;;;;;;;9.00;4.80;;;14.40;61.80;;;13.07;70.11;95584.13;4971040;28;20066;-68
2023/06/14 04:58:28;;;;;;;7.85;3.97;;;14.40;61.50;;;13.10;70.46;95583.69;4989974;28;20034;-67
2023/06/14 05:00:55;;;;;;;9.30;4.68;;;14.50;61.20;;;13.10;69.66;95584.50;4987927;28;20049;-68
2023/06/14 05:03:24;;;;;;;8.80;4.80;;;14.50;61.60;;;13.17;70.95;95589.75;4957860;28;20173;-68
2023/06/14 05:05:50;;;;;;;7.25;3.95;;;14.50;61.80;;;13.20;71.19;95589.34;4972741;28;20406;-68
2023/06/14 05:08:16;;;;;;;10.10;7.47;;;14.60;62.40;;;13.28;70.99;95604.09;4972633;28;20027;-67
2023/06/14 05:10:42;;;;;;;5.95;4.97;;;14.70;62.60;;;13.33;71.20;95596.31;4972482;28;20046;-67
2023/06/14 05:13:08;;;;;;;7.28;5.60;;;14.80;62.20;;;13.38;70.81;95602.56;4989599;28;20046;-68
2023/06/14 05:15:33;;;;;;;7.80;4.65;;;14.80;61.90;;;13.44;69.94;95598.25;4989580;28;20030;-68
2023/06/14 05:17:59;;;;;;;7.45;4.03;;;14.80;60.90;;;13.49;69.33;95598.41;4988553;28;20405;-68
2023/06/14 05:20:26;;;;;;;6.88;4.35;;;14.90;60.70;;;13.56;70.40;95598.31;4989425;28;20061;-67
2023/06/14 05:22:53;;;;;;;6.32;4.00;;;15.00;60.30;;;13.61;69.60;95601.13;4939624;28;20058;-68
2023/06/14 05:25:20;;;;;;;5.70;4.07;;;15.10;60.60;;;13.67;69.97;95594.97;4956776;28;20038;-67
2023/06/14 05:27:46;;;;;;;9.32;4.63;;;15.20;61.10;;;13.77;70.73;95600.53;4954295;28;20039;-68
2023/06/14 05:30:13;;;;;;;6.47;4.45;;;15.30;61.30;;;13.87;69.82;95605.31;4956651;28;20030;-68
2023/06/14 05:32:39;;;;;;;8.52;4.10;;;15.40;60.70;;;13.97;70.45;95606.38;4989390;28;20031;-68
2023/06/14 05:35:05;;;;;;;7.10;4.28;;;15.50;60.10;;;14.06;68.68;95613.00;4971691;28;20037;-67
2023/06/14 05:37:31;;;;;;;6.82;3.90;;;15.60;58.90;;;14.17;66.98;95615.91;4989370;28;20061;-68
2023/06/14 05:39:59;;;;;;;9.77;5.85;;;15.70;57.40;;;14.25;66.78;95612.94;4988383;28;20034;-68
2023/06/14 05:42:25;;;;;;;8.75;4.53;;;15.80;57.20;;;14.36;67.33;95606.91;4957757;28;20043;-68
2023/06/14 05:44:51;;;;;;;6.38;4.25;;;16.00;57.50;;;14.48;67.77;95605.13;4972325;28;20081;-68
2023/06/14 05:47:17;;;;;;;6.55;3.85;;;16.10;57.80;;;14.61;66.60;95612.09;4957166;28;20034;-67
2023/06/14 05:49:42;;;;;;;6.40;4.20;;;16.30;57.10;;;14.74;65.29;95611.09;4975569;28;20035;-68
2023/06/14 05:52:08;;;;;;;7.88;3.95;;;16.50;55.30;;;14.86;66.17;95601.34;4972430;28;20078;-68
2023/06/14 05:54:34;;;;;;;7.90;3.83;;;16.60;54.90;;;14.97;65.53;95608.50;4989146;28;20576;-68
2023/06/14 05:57:01;;;;;;;6.15;3.75;;;16.70;55.50;;;15.10;65.19;95600.34;4988878;28;20081;-67
2023/06/14 05:59:27;;;;;;;9.75;4.68;;;16.90;54.00;;;15.24;63.50;95593.78;4983864;28;20030;-67
2023/06/14 06:01:53;;;;;;;9.27;4.38;;;17.00;53.40;;;15.39;62.93;95603.09;4957243;28;20453;-67
2023/06/14 06:04:19;;;;;;;8.75;4.15;;;17.20;52.60;;;15.53;62.53;95599.19;4963740;28;20030;-68
2023/06/14 06:06:46;;;;;;;9.10;3.58;;;17.40;52.40;;;15.72;62.33;95600.69;4956768;28;20057;-68
2023/06/14 06:09:12;;;;;;;6.65;3.85;;;17.70;52.20;;;15.93;62.07;95592.13;4972899;28;20030;-68
2023/06/14 06:11:38;;;;;;;6.22;3.88;;;18.00;51.30;;;16.16;61.43;95593.91;4989040;28;20524;-67
2023/06/14 06:14:03;;;;;;;9.45;3.72;;;18.30;50.60;;;16.42;60.71;95597.84;4971844;28;20569;-68
2023/06/14 06:16:29;;;;;;;10.60;4.40;;;18.60;49.90;;;16.68;60.43;95601.78;4989054;28;20094;-68
2023/06/14 06:18:55;;;;;;;8.00;4.00;;;18.80;49.30;;;16.93;59.39;95604.06;4958909;28;20035;-68
2023/06/14 06:21:20;;;;;;;5.85;4.15;;;19.10;49.00;;;17.19;58.70;95610.59;4956804;28;20073;-68
2023/06/14 06:23:46;;;;;;;7.40;4.13;;;19.40;48.30;;;17.41;58.49;95608.00;4992240;28;20034;-68
2023/06/14 06:26:12;;;;;;;7.50;3.80;;;19.60;47.30;;;17.58;57.17;95608.78;4976098;28;20465;-67
2023/06/14 06:28:37;;;;;;;5.40;3.58;;;19.60;46.20;;;17.77;56.04;95609.34;4976453;28;20085;-68
2023/06/14 06:31:03;;;;;;;8.15;4.10;;;20.00;46.10;;;17.95;54.14;95606.41;4975845;28;20089;-67
2023/06/14 06:33:29;;;;;;;9.55;3.33;;;20.20;43.90;;;18.10;53.81;95611.09;4991210;28;20030;-68
2023/06/14 06:35:55;;;;;;;7.00;3.38;;;20.30;44.00;;;18.31;53.70;95610.28;4991660;28;20026;-68
2023/06/14 06:38:21;;;;;;;4.45;3.13;;;20.70;44.00;;;18.57;52.73;95615.91;4992248;28;20085;-67
2023/06/14 06:40:46;;;;;;;4.60;3.20;;;21.00;43.60;;;18.75;53.25;95610.22;4978613;28;20449;-68
2023/06/14 06:43:17;;;;;;;8.40;3.70;;;21.10;42.70;;;18.90;50.53;95613.03;4961336;28;20517;-68
2023/06/14 06:45:42;;;;;;;5.18;3.30;;;21.30;41.60;;;19.09;51.95;95610.00;4962359;28;20507;-68
2023/06/14 06:48:10;;;;;;;9.73;3.55;;;21.60;42.50;;;19.31;51.16;95610.72;4976687;28;20141;-68
2023/06/14 06:50:36;;;;;;;7.05;3.42;;;21.80;41.90;;;19.50;49.99;95600.47;4978992;28;20035;-67
2023/06/14 06:53:02;;;;;;;6.30;3.67;;;22.10;41.90;;;19.70;50.06;95595.28;4991733;28;20030;-68
2023/06/14 06:55:28;;;;;;;8.68;3.95;;;22.30;41.40;;;19.83;49.07;95594.81;4959750;28;20085;-68
2023/06/14 06:57:54;;;;;;;6.10;3.70;;;22.40;40.20;;;19.93;48.11;95604.75;4977822;28;20058;-67
2023/06/14 07:00:21;;;;;;;4.88;3.58;;;22.50;40.60;;;20.00;48.29;95605.31;4975544;28;20454;-68
2023/06/14 07:02:46;;;;;;;8.85;3.50;;;22.60;41.30;;;20.06;48.62;95609.59;4985378;28;20058;-68
2023/06/14 07:05:12;;;;;;;5.40;3.83;;;22.60;40.40;;;20.07;46.97;95605.84;4975499;28;20037;-68
2023/06/14 07:07:38;;;;;;;6.70;3.53;;;22.50;39.30;;;20.05;47.89;95602.66;4992078;28;20081;-68
2023/06/14 07:10:05;;;;;;;6.75;3.58;;;22.60;40.50;;;20.11;47.55;95606.13;4990775;28;20038;-68
2023/06/14 07:12:35;;;;;;;7.55;3.30;;;22.70;40.20;;;20.19;48.72;95609.13;4970443;28;20041;-69
2023/06/14 07:15:01;;;;;;;4.78;3.60;;;22.90;41.60;;;20.24;47.96;95604.88;4991277;28;20034;-68
2023/06/14 07:17:27;;;;;;;5.28;3.60;;;22.90;40.50;;;20.33;48.08;95603.28;4989092;28;20038;-68
2023/06/14 07:19:53;;;;;;;12.32;3.83;;;23.00;40.00;;;20.38;47.26;95611.34;4974760;28;20035;-68
2023/06/14 07:22:19;;;;;;;5.82;3.60;;;23.10;40.60;;;20.46;47.12;95610.84;4991313;28;20042;-68
2023/06/14 07:24:45;;;;;;;10.63;3.47;;;23.20;40.00;;;20.59;47.14;95623.69;4975291;28;20034;-68
2023/06/14 07:27:13;;;;;;;10.07;4.53;;;23.40;40.00;;;20.68;47.23;95619.44;4958919;28;20454;-68
2023/06/14 07:29:38;;;;;;;8.77;3.33;;;23.60;39.30;;;20.82;46.94;95621.59;4991546;28;20521;-68
2023/06/14 07:32:05;;;;;;;6.38;3.55;;;23.80;40.40;;;20.96;47.23;95625.38;4990529;28;20056;-69
2023/06/14 07:34:31;;;;;;;12.40;3.38;;;24.00;40.00;;;21.09;47.62;95623.00;4990458;28;20576;-68
2023/06/14 07:36:57;;;;;;;6.07;3.40;;;24.20;40.30;;;21.25;46.27;95629.16;4991101;28;20042;-68
2023/06/14 07:39:23;;;;;;;11.52;3.70;;;24.40;37.70;;;21.40;46.39;95628.38;4991298;28;20035;-68
2023/06/14 07:41:49;;;;;;;12.98;3.50;;;24.70;38.10;;;21.52;45.66;95620.06;4990883;28;20104;-69
2023/06/14 07:44:15;;;;;;;8.27;3.30;;;24.80;37.10;;;21.67;44.96;95620.03;4990664;28;20801;-68
2023/06/14 07:46:41;;;;;;;8.60;3.80;;;24.80;36.10;;;21.79;45.04;95625.91;4991279;28;20042;-68
2023/06/14 07:49:07;;;;;;;8.75;2.90;;;25.10;37.30;;;21.93;44.50;95615.41;4941982;28;20101;-68
2023/06/14 07:51:32;;;;;;;4.18;2.45;;;25.10;36.50;;;21.99;44.96;95623.19;4950437;28;20031;-68
2023/06/14 07:54:00;;;;;;;7.57;2.88;;;25.20;36.60;;;22.07;43.75;95623.72;4972042;28;20572;-68
2023/06/14 07:56:26;;;;;;;22.48;3.95;;;25.30;35.90;;;22.27;44.19;95623.66;4958279;28;20023;-68
2023/06/14 07:58:52;;;;;;;14.55;3.60;;;25.60;37.10;;;22.42;43.93;95618.25;4956043;28;20031;-68
2023/06/14 08:01:19;;;;;;;9.05;3.00;;;25.60;36.70;;;22.58;44.63;95627.00;4990473;28;20042;-68
2023/06/14 08:03:45;;;;;;;4.82;3.28;;;25.90;37.50;;;22.64;42.88;95620.53;4990871;28;20406;-69
2023/06/14 08:06:11;;;;;;;6.82;2.97;;;25.80;35.20;;;22.79;42.37;95627.69;4973706;28;20030;-68
2023/06/14 08:08:37;;;;;;;6.03;2.58;;;26.10;35.90;;;22.98;42.50;95617.94;4971204;28;20042;-68
2023/06/14 08:11:03;;;;;;;6.80;3.00;;;26.40;35.50;;;23.16;42.47;95622.66;4988894;28;20391;-68
2023/06/14 08:13:28;;;;;;;8.68;2.28;;;26.70;35.10;;;23.35;42.29;95621.97;4958006;28;20506;-68
2023/06/14 08:15:55;;;;;;;6.22;2.85;;;26.80;35.30;;;23.54;42.60;95628.25;4973717;28;20062;-68
2023/06/14 08:18:21;;;;;;;3.92;2.38;;;27.10;35.40;;;23.71;41.26;95625.16;4991699;28;20113;-68
2023/06/14 08:20:46;;;;;;;6.55;2.65;;;27.20;33.50;;;23.89;40.47;95618.25;4990595;28;20077;-68
2023/06/14 08:23:13;;;;;;;3.83;2.20;;;27.40;33.10;;;24.04;40.46;95612.75;4973757;28;20035;-68
2023/06/14 08:25:38;;;;;;;3.42;2.40;;;27.50;32.30;;;24.14;40.49;95617.97;4990347;28;20041;-68
2023/06/14 08:28:04;;;;;;;5.40;3.00;;;27.40;33.50;;;24.22;39.77;95606.63;4973468;28;20070;-68
2023/06/14 08:30:30;;;;;;;4.97;2.83;;;27.10;32.10;;;24.23;39.82;95616.28;4991350;28;20074;-68
2023/06/14 08:32:56;;;;;;;5.40;2.72;;;27.00;33.30;;;24.26;39.02;95615.69;4990281;28;20027;-68
2023/06/14 08:35:22;;;;;;;4.40;2.70;;;27.20;33.50;;;24.30;39.55;95614.06;4988398;23;20058;-65
2023/06/14 08:37:49;;;;;;;4.75;2.50;;;27.20;33.70;;;24.33;39.39;95626.13;4971716;28;20041;-66
2023/06/14 08:40:19;;;;;;;4.85;2.50;;;27.00;33.60;;;24.23;38.23;95623.53;4973942;28;20045;-65
2023/06/14 08:42:45;;;;;;;4.00;2.53;;;26.60;33.80;;;24.13;39.53;95635.19;4992897;28;20119;-66
2023/06/14 08:45:11;;;;;;;4.13;2.58;;;26.50;35.30;;;24.11;39.06;95632.00;4970823;28;20422;-66
2023/06/14 08:47:36;;;;;;;4.32;2.60;;;26.50;33.90;;;24.12;39.65;95636.28;4990282;28;20026;-66
2023/06/14 08:50:04;;;;;;;5.70;2.35;;;26.50;35.10;;;24.16;38.81;95634.63;4971788;28;20502;-66
2023/06/14 08:52:33;;;;;;;3.75;2.65;;;26.50;34.70;;;24.22;38.75;95638.06;4972752;28;20042;-66
2023/06/14 08:55:00;;;;;;;5.73;2.70;;;26.70;33.70;;;24.22;38.55;95643.44;4973903;28;20038;-66
2023/06/14 08:57:30;;;;;;;5.78;2.83;;;26.60;33.50;;;24.24;38.48;95642.06;4974037;28;20097;-66
2023/06/14 08:59:56;;;;;;;;;;;26.70;33.00;;;24.24;38.55;95634.00;4974094;28;20045;-66
2023/06/14 09:02:22;;;;;;;5.43;2.75;;;26.80;34.40;;;24.31;38.46;95636.38;4973703;28;19917;-66
2023/06/14 09:04:49;;;;;;;4.38;2.70;;;26.80;33.60;;;24.38;38.84;95643.00;4973439;28;20041;-66
2023/06/14 09:07:15;;;;;;;5.15;2.47;;;27.20;34.70;;;24.68;39.47;95641.81;4973621;28;20030;-66
2023/06/14 09:09:41;;;;;;;5.07;2.70;;;28.10;33.70;;;25.04;38.38;95634.06;4989685;28;20525;-66
2023/06/14 09:12:16;;;;;;;6.38;2.65;;;28.50;31.60;;;25.42;36.41;95612.50;4955642;28;20035;-66
2023/06/14 09:14:43;;;;;;;3.38;2.20;;;28.90;31.00;;;25.85;37.44;95636.56;4949188;28;20056;-66
2023/06/14 09:17:09;;;;;;;3.83;2.38;;;29.60;31.40;;;26.29;37.34;95624.44;4988385;28;20070;-66
2023/06/14 09:19:36;;;;;;;4.93;2.53;;;30.10;29.50;;;26.63;36.18;95632.91;4972244;28;20043;-67
2023/06/14 09:22:03;;;;;;;4.50;2.50;;;30.40;29.30;;;27.02;35.85;95615.38;4988670;28;20041;-66
2023/06/14 09:24:29;;;;;;;4.05;2.70;;;30.80;28.70;;;27.25;34.97;95629.69;4973386;28;20121;-66
2023/06/14 09:26:55;;;;;;;8.23;3.17;;;30.80;28.60;;;27.44;35.09;95620.31;4990598;28;20042;-66
2023/06/14 09:29:20;;;;;;;11.10;2.92;;;31.00;27.90;;;27.72;34.48;95617.47;4988261;28;20039;-66
2023/06/14 09:31:47;;;;;;;5.68;2.72;;;31.40;27.60;;;27.97;34.28;95624.91;4989288;28;20030;-67
2023/06/14 09:34:13;;;;;;;3.42;2.22;;;31.50;27.90;;;28.24;33.83;95632.03;4987239;28;20710;-66
2023/06/14 09:36:39;;;;;;;3.85;2.15;;;31.80;28.00;;;28.41;33.54;95615.09;4989440;28;20038;-66
2023/06/14 09:39:06;;;;;;;3.00;2.10;;;31.60;26.40;;;28.57;32.99;95618.97;4955246;28;20592;-67
2023/06/14 09:41:39;;;;;;;5.70;4.07;;;32.00;27.50;;;28.83;31.72;95591.13;4990666;28;20042;-66
2023/06/14 09:44:09;;;;;;;10.95;8.52;;;32.10;27.00;;;28.85;32.45;95621.38;4966725;28;20074;-66
2023/06/14 09:46:35;;;;;;;6.55;3.40;;;31.60;26.60;;;28.94;31.72;95611.38;4971836;28;20035;-66
2023/06/14 09:49:02;;;;;;;3.08;2.20;;;32.30;25.90;;;29.23;31.24;95614.28;4990219;28;20513;-66
2023/06/14 09:51:30;;;;;;;2.63;2.15;;;32.80;25.50;;;29.34;31.37;95612.03;4987930;28;20033;-67
2023/06/14 09:54:04;;;;;;;5.78;4.35;;;32.40;25.70;;;29.48;30.70;95609.97;4988320;28;20120;-67
2023/06/14 09:56:34;;;;;;;7.15;3.53;;;32.90;26.40;;;29.69;31.16;95612.81;4974493;28;20038;-68
2023/06/14 09:59:00;;;;;;;3.92;2.70;;;33.40;26.10;;;30.05;31.52;95630.59;4974434;28;20030;-67
2023/06/14 10:01:28;;;;;;;5.30;2.40;;;33.90;25.30;;;30.33;30.46;95617.41;4975172;28;20058;-68
2023/06/14 10:04:03;;;;;;;5.68;2.70;;;34.20;23.50;;;30.58;28.51;95589.31;4957194;28;20070;-68
2023/06/14 10:06:29;;;;;;;6.22;3.10;;;34.30;23.70;;;30.81;29.95;95619.72;4992965;28;20038;-67
2023/06/14 10:08:59;;;;;;;3.67;2.30;;;35.00;24.10;;;31.25;28.96;95601.19;4991545;28;20031;-67
2023/06/14 10:11:28;;;;;;;;;;;35.60;21.60;;;31.34;27.23;95569.28;4990193;28;20501;-67
2023/06/14 10:13:57;;;;;;;13.60;2.20;;;34.80;22.20;;;31.17;26.67;95569.44;4976242;28;19961;-67
2023/06/14 10:16:33;;;;;;;3.10;2.80;;;33.90;21.80;;;30.79;27.91;95594.81;4977240;28;20030;-64